Weather challenge

For all non-SimAirline.net FS flying and add-on recommendations.

Moderator: Moderating Team

Post Reply
RatherBFlyin
Moderator
Posts: 3086
Joined: 09 Jan 2005, 06:52
Location: Apex, NC
Contact:

Weather challenge

Post by RatherBFlyin » 25 Dec 2009, 04:35

If anyone is looking for a good challenge, I just flew an ILS approach to minimums at Brussels using ASA (real-world) weather. I know we have quite a few airlines that fly into Brussels (including Sabena, obviously :P), so hurry up and get in before the weather lifts (or lowers and closes the airport!).

METAR
250320Z 29006KT 1200 R25L/P1500N R25R/P1500N R02/P1500N -RA BR SCT001 BKN002 01/M00 Q0980 R25L/2501// R02///99// R25R/2501// NOSIG

TAF
242320Z 2500/2606 03006KT 6000 -RA SCT012 BKN020
TEMPO 2500/2509 2500 RA BKN004
BECMG 2504/2506 26014KT PROB40
TEMPO 2505/2508 0600 SN BKN003
TEMPO 2509/2515 26015G25KT PROB40
TEMPO 2509/2515 BKN010
BECMG 2521/2524 21011KT

Post Reply